sensor_id;sensor_type;location;lat;lon;timestamp;temperature;humidity
18880;DHT22;9572;52.378;13.404;2023-04-03T00:01:55;1.30;99.90
18880;DHT22;9572;52.378;13.404;2023-04-03T00:04:22;1.30;99.90
18880;DHT22;9572;52.378;13.404;2023-04-03T00:06:50;1.30;99.90
18880;DHT22;9572;52.378;13.404;2023-04-03T00:09:20;1.20;99.90
18880;DHT22;9572;52.378;13.404;2023-04-03T00:11:48;1.20;99.90
18880;DHT22;9572;52.378;13.404;2023-04-03T00:14:16;1.10;99.90
18880;DHT22;9572;52.378;13.404;2023-04-03T00:16:51;1.00;99.90
18880;DHT22;9572;52.378;13.404;2023-04-03T00:19:28;1.00;99.90
18880;DHT22;9572;52.378;13.404;2023-04-03T00:21:55;1.00;99.90
18880;DHT22;9572;52.378;13.404;2023-04-03T00:24:35;1.00;99.90
18880;DHT22;9572;52.378;13.404;2023-04-03T00:27:10;1.00;99.90
18880;DHT22;9572;52.378;13.404;2023-04-03T00:29:37;1.00;99.90
18880;DHT22;9572;52.378;13.404;2023-04-03T00:32:04;0.90;99.90
18880;DHT22;9572;52.378;13.404;2023-04-03T00:34:31;1.00;99.90
18880;DHT22;9572;52.378;13.404;2023-04-03T00:37:01;0.90;99.90
18880;DHT22;9572;52.378;13.404;2023-04-03T00:39:28;0.90;99.90
18880;DHT22;9572;52.378;13.404;2023-04-03T00:42:07;0.90;99.90
18880;DHT22;9572;52.378;13.404;2023-04-03T00:47:42;0.90;99.90
18880;DHT22;9572;52.378;13.404;2023-04-03T00:50:13;0.90;99.90
18880;DHT22;9572;52.378;13.404;2023-04-03T00:52:48;0.80;99.90
18880;DHT22;9572;52.378;13.404;2023-04-03T00:55:20;0.90;99.90
18880;DHT22;9572;52.378;13.404;2023-04-03T00:57:51;0.80;99.90
18880;DHT22;9572;52.378;13.404;2023-04-03T01:00:24;0.90;99.90
18880;DHT22;9572;52.378;13.404;2023-04-03T01:02:55;0.80;99.90
18880;DHT22;9572;52.378;13.404;2023-04-03T01:05:25;0.80;99.90
18880;DHT22;9572;52.378;13.404;2023-04-03T01:07:55;0.90;99.90
18880;DHT22;9572;52.378;13.404;2023-04-03T01:10:36;0.90;99.90
18880;DHT22;9572;52.378;13.404;2023-04-03T01:13:19;0.90;99.90
18880;DHT22;9572;52.378;13.404;2023-04-03T01:15:48;0.80;99.90
18880;DHT22;9572;52.378;13.404;2023-04-03T01:18:33;0.80;99.90
18880;DHT22;9572;52.378;13.404;2023-04-03T01:21:45;0.70;99.90
18880;DHT22;9572;52.378;13.404;2023-04-03T01:25:04;0.80;99.90
18880;DHT22;9572;52.378;13.404;2023-04-03T01:27:28;0.70;99.90
18880;DHT22;9572;52.378;13.404;2023-04-03T01:30:04;0.80;99.90
18880;DHT22;9572;52.378;13.404;2023-04-03T01:32:36;0.80;99.90
18880;DHT22;9572;52.378;13.404;2023-04-03T01:35:10;0.80;99.90
18880;DHT22;9572;52.378;13.404;2023-04-03T01:37:42;0.70;99.90
18880;DHT22;9572;52.378;13.404;2023-04-03T01:40:10;0.60;99.90
18880;DHT22;9572;52.378;13.404;2023-04-03T01:42:37;0.50;99.90
18880;DHT22;9572;52.378;13.404;2023-04-03T01:45:10;0.50;99.90
18880;DHT22;9572;52.378;13.404;2023-04-03T01:47:39;0.40;99.90
18880;DHT22;9572;52.378;13.404;2023-04-03T01:50:20;0.50;99.90
18880;DHT22;9572;52.378;13.404;2023-04-03T01:52:49;0.50;99.90
18880;DHT22;9572;52.378;13.404;2023-04-03T01:55:22;0.40;99.90
18880;DHT22;9572;52.378;13.404;2023-04-03T01:57:52;0.50;99.90
18880;DHT22;9572;52.378;13.404;2023-04-03T02:00:32;0.60;99.90
18880;DHT22;9572;52.378;13.404;2023-04-03T02:03:11;0.60;99.90
18880;DHT22;9572;52.378;13.404;2023-04-03T02:05:45;0.50;99.90
18880;DHT22;9572;52.378;13.404;2023-04-03T02:08:22;0.60;99.90
18880;DHT22;9572;52.378;13.404;2023-04-03T02:11:18;0.50;99.90
18880;DHT22;9572;52.378;13.404;2023-04-03T02:13:50;0.60;99.90
18880;DHT22;9572;52.378;13.404;2023-04-03T02:16:45;0.40;99.90
18880;DHT22;9572;52.378;13.404;2023-04-03T02:19:21;0.50;99.90
18880;DHT22;9572;52.378;13.404;2023-04-03T02:22:28;0.50;99.90
18880;DHT22;9572;52.378;13.404;2023-04-03T02:26:03;0.50;99.90
18880;DHT22;9572;52.378;13.404;2023-04-03T02:36:00;0.50;99.90
18880;DHT22;9572;52.378;13.404;2023-04-03T05:39:54;0.90;99.90
18880;DHT22;9572;52.378;13.404;2023-04-03T05:49:18;1.20;99.90
18880;DHT22;9572;52.378;13.404;2023-04-03T05:51:49;1.40;99.90
18880;DHT22;9572;52.378;13.404;2023-04-03T05:54:24;1.40;99.90
18880;DHT22;9572;52.378;13.404;2023-04-03T05:56:53;1.60;99.90
18880;DHT22;9572;52.378;13.404;2023-04-03T05:59:20;1.70;99.90
18880;DHT22;9572;52.378;13.404;2023-04-03T06:01:48;2.00;99.90
18880;DHT22;9572;52.378;13.404;2023-04-03T06:04:16;2.20;99.90
18880;DHT22;9572;52.378;13.404;2023-04-03T06:06:49;2.40;99.90
18880;DHT22;9572;52.378;13.404;2023-04-03T06:09:17;2.60;99.90
18880;DHT22;9572;52.378;13.404;2023-04-03T06:11:44;2.70;99.90
18880;DHT22;9572;52.378;13.404;2023-04-03T06:14:14;2.90;99.90
18880;DHT22;9572;52.378;13.404;2023-04-03T06:16:41;2.80;99.90
18880;DHT22;9572;52.378;13.404;2023-04-03T06:19:09;3.00;99.90
18880;DHT22;9572;52.378;13.404;2023-04-03T06:21:40;3.30;99.90
18880;DHT22;9572;52.378;13.404;2023-04-03T06:24:07;3.30;99.90
18880;DHT22;9572;52.378;13.404;2023-04-03T06:26:34;3.10;99.90
18880;DHT22;9572;52.378;13.404;2023-04-03T06:29:01;3.20;99.90
18880;DHT22;9572;52.378;13.404;2023-04-03T06:31:29;3.30;99.90
18880;DHT22;9572;52.378;13.404;2023-04-03T06:33:56;3.50;99.90
18880;DHT22;9572;52.378;13.404;2023-04-03T06:36:23;3.70;99.90
18880;DHT22;9572;52.378;13.404;2023-04-03T06:38:51;3.80;99.90
18880;DHT22;9572;52.378;13.404;2023-04-03T06:41:18;4.00;99.90
18880;DHT22;9572;52.378;13.404;2023-04-03T06:43:45;4.00;99.90
18880;DHT22;9572;52.378;13.404;2023-04-03T06:46:15;3.90;99.90
18880;DHT22;9572;52.378;13.404;2023-04-03T06:48:44;3.90;99.90
18880;DHT22;9572;52.378;13.404;2023-04-03T06:51:17;3.90;99.90
18880;DHT22;9572;52.378;13.404;2023-04-03T06:53:45;3.70;99.90
18880;DHT22;9572;52.378;13.404;2023-04-03T06:56:12;3.60;99.90
18880;DHT22;9572;52.378;13.404;2023-04-03T06:58:40;3.60;99.90
18880;DHT22;9572;52.378;13.404;2023-04-03T07:01:07;3.70;99.90
18880;DHT22;9572;52.378;13.404;2023-04-03T07:03:35;3.60;99.90
18880;DHT22;9572;52.378;13.404;2023-04-03T07:06:04;3.70;99.90
18880;DHT22;9572;52.378;13.404;2023-04-03T07:08:33;3.70;99.90
18880;DHT22;9572;52.378;13.404;2023-04-03T07:11:04;3.80;99.90
18880;DHT22;9572;52.378;13.404;2023-04-03T07:13:35;3.90;99.90
18880;DHT22;9572;52.378;13.404;2023-04-03T07:16:03;3.70;99.90
18880;DHT22;9572;52.378;13.404;2023-04-03T07:18:31;3.80;99.90
18880;DHT22;9572;52.378;13.404;2023-04-03T07:20:58;3.60;99.90
18880;DHT22;9572;52.378;13.404;2023-04-03T07:23:26;3.70;99.90
18880;DHT22;9572;52.378;13.404;2023-04-03T07:25:54;3.90;99.90
18880;DHT22;9572;52.378;13.404;2023-04-03T07:28:21;3.70;99.90
18880;DHT22;9572;52.378;13.404;2023-04-03T07:30:50;3.70;99.90
18880;DHT22;9572;52.378;13.404;2023-04-03T07:33:19;4.00;99.90
18880;DHT22;9572;52.378;13.404;2023-04-03T07:35:47;4.10;99.90
18880;DHT22;9572;52.378;13.404;2023-04-03T07:38:14;4.40;99.90
18880;DHT22;9572;52.378;13.404;2023-04-03T07:40:45;4.40;99.90
18880;DHT22;9572;52.378;13.404;2023-04-03T07:43:13;4.30;99.90
18880;DHT22;9572;52.378;13.404;2023-04-03T07:45:40;4.20;99.90
18880;DHT22;9572;52.378;13.404;2023-04-03T07:48:09;4.30;99.90
18880;DHT22;9572;52.378;13.404;2023-04-03T07:50:36;4.40;99.90
18880;DHT22;9572;52.378;13.404;2023-04-03T07:53:03;4.20;99.90
18880;DHT22;9572;52.378;13.404;2023-04-03T07:55:31;4.30;99.90
18880;DHT22;9572;52.378;13.404;2023-04-03T07:58:00;4.30;99.90
18880;DHT22;9572;52.378;13.404;2023-04-03T08:00:27;4.20;99.90
18880;DHT22;9572;52.378;13.404;2023-04-03T08:02:54;4.00;99.90
18880;DHT22;9572;52.378;13.404;2023-04-03T08:05:21;4.00;99.90
18880;DHT22;9572;52.378;13.404;2023-04-03T08:07:48;3.90;99.90
18880;DHT22;9572;52.378;13.404;2023-04-03T08:10:16;3.70;99.90
18880;DHT22;9572;52.378;13.404;2023-04-03T08:12:45;3.60;99.90
18880;DHT22;9572;52.378;13.404;2023-04-03T08:15:15;3.80;99.90
18880;DHT22;9572;52.378;13.404;2023-04-03T08:17:42;4.10;99.90
18880;DHT22;9572;52.378;13.404;2023-04-03T08:20:10;4.30;99.90
18880;DHT22;9572;52.378;13.404;2023-04-03T08:22:37;4.50;99.90
18880;DHT22;9572;52.378;13.404;2023-04-03T08:25:04;5.20;99.90
18880;DHT22;9572;52.378;13.404;2023-04-03T08:27:32;5.50;99.90
18880;DHT22;9572;52.378;13.404;2023-04-03T08:29:59;5.80;99.90
18880;DHT22;9572;52.378;13.404;2023-04-03T08:32:28;5.70;99.90
18880;DHT22;9572;52.378;13.404;2023-04-03T08:34:55;5.40;99.90
18880;DHT22;9572;52.378;13.404;2023-04-03T08:37:22;5.00;99.90
18880;DHT22;9572;52.378;13.404;2023-04-03T08:39:49;4.60;99.90
18880;DHT22;9572;52.378;13.404;2023-04-03T08:42:22;4.50;99.90
18880;DHT22;9572;52.378;13.404;2023-04-03T08:44:57;4.50;99.90
18880;DHT22;9572;52.378;13.404;2023-04-03T08:47:40;4.60;99.90
18880;DHT22;9572;52.378;13.404;2023-04-03T08:50:12;4.50;99.90
18880;DHT22;9572;52.378;13.404;2023-04-03T08:52:42;4.30;99.90
18880;DHT22;9572;52.378;13.404;2023-04-03T08:55:20;4.00;99.90
18880;DHT22;9572;52.378;13.404;2023-04-03T08:57:52;4.10;99.90
18880;DHT22;9572;52.378;13.404;2023-04-03T09:00:23;4.50;99.90
18880;DHT22;9572;52.378;13.404;2023-04-03T09:02:53;4.60;99.90
18880;DHT22;9572;52.378;13.404;2023-04-03T09:05:32;4.60;99.90
18880;DHT22;9572;52.378;13.404;2023-04-03T09:08:05;4.60;99.90
18880;DHT22;9572;52.378;13.404;2023-04-03T09:10:37;4.40;99.90
18880;DHT22;9572;52.378;13.404;2023-04-03T09:13:09;4.30;99.90
18880;DHT22;9572;52.378;13.404;2023-04-03T09:15:38;4.00;99.90
18880;DHT22;9572;52.378;13.404;2023-04-03T09:18:13;4.00;99.90
18880;DHT22;9572;52.378;13.404;2023-04-03T09:20:46;4.00;99.90
18880;DHT22;9572;52.378;13.404;2023-04-03T09:23:22;4.10;99.90
18880;DHT22;9572;52.378;13.404;2023-04-03T09:25:54;4.10;99.90
18880;DHT22;9572;52.378;13.404;2023-04-03T09:28:23;4.00;99.90
18880;DHT22;9572;52.378;13.404;2023-04-03T09:30:50;4.10;99.90
18880;DHT22;9572;52.378;13.404;2023-04-03T09:33:18;4.20;99.90
18880;DHT22;9572;52.378;13.404;2023-04-03T09:35:47;4.10;99.90
18880;DHT22;9572;52.378;13.404;2023-04-03T09:38:17;4.30;99.90
18880;DHT22;9572;52.378;13.404;2023-04-03T09:40:46;4.50;99.90
18880;DHT22;9572;52.378;13.404;2023-04-03T09:43:26;4.50;99.90
18880;DHT22;9572;52.378;13.404;2023-04-03T09:45:54;4.80;99.90
18880;DHT22;9572;52.378;13.404;2023-04-03T09:48:24;4.90;99.90
18880;DHT22;9572;52.378;13.404;2023-04-03T09:51:01;5.20;99.90
18880;DHT22;9572;52.378;13.404;2023-04-03T09:53:34;6.10;99.90
18880;DHT22;9572;52.378;13.404;2023-04-03T09:56:04;6.40;99.90
18880;DHT22;9572;52.378;13.404;2023-04-03T09:58:38;6.60;99.90
18880;DHT22;9572;52.378;13.404;2023-04-03T10:01:21;6.90;99.90
18880;DHT22;9572;52.378;13.404;2023-04-03T10:04:03;7.60;99.90
18880;DHT22;9572;52.378;13.404;2023-04-03T10:06:32;8.10;99.90
18880;DHT22;9572;52.378;13.404;2023-04-03T10:09:02;7.90;99.90
18880;DHT22;9572;52.378;13.404;2023-04-03T10:11:30;7.80;99.90
18880;DHT22;9572;52.378;13.404;2023-04-03T10:13:58;7.80;99.90
18880;DHT22;9572;52.378;13.404;2023-04-03T10:16:32;7.80;99.90
18880;DHT22;9572;52.378;13.404;2023-04-03T10:19:29;7.60;99.90
18880;DHT22;9572;52.378;13.404;2023-04-03T10:21:59;7.30;99.90
18880;DHT22;9572;52.378;13.404;2023-04-03T10:24:35;6.70;99.90
18880;DHT22;9572;52.378;13.404;2023-04-03T10:27:08;6.50;99.90
18880;DHT22;9572;52.378;13.404;2023-04-03T10:29:45;6.40;99.90
18880;DHT22;9572;52.378;13.404;2023-04-03T10:32:40;6.40;99.90
18880;DHT22;9572;52.378;13.404;2023-04-03T10:35:18;6.30;99.90
18880;DHT22;9572;52.378;13.404;2023-04-03T10:37:58;6.00;99.90
18880;DHT22;9572;52.378;13.404;2023-04-03T10:40:30;6.00;99.90
18880;DHT22;9572;52.378;13.404;2023-04-03T10:43:04;5.80;99.90
18880;DHT22;9572;52.378;13.404;2023-04-03T10:45:51;5.70;99.90
18880;DHT22;9572;52.378;13.404;2023-04-03T10:48:40;5.70;99.90
18880;DHT22;9572;52.378;13.404;2023-04-03T10:51:20;5.70;99.90
18880;DHT22;9572;52.378;13.404;2023-04-03T10:53:55;5.90;99.90
18880;DHT22;9572;52.378;13.404;2023-04-03T10:56:31;6.80;99.90
18880;DHT22;9572;52.378;13.404;2023-04-03T10:59:02;7.00;99.90
18880;DHT22;9572;52.378;13.404;2023-04-03T11:01:37;6.50;99.90
18880;DHT22;9572;52.378;13.404;2023-04-03T11:04:06;6.20;99.90
18880;DHT22;9572;52.378;13.404;2023-04-03T11:06:37;6.10;99.90
18880;DHT22;9572;52.378;13.404;2023-04-03T11:09:15;6.00;99.90
18880;DHT22;9572;52.378;13.404;2023-04-03T11:11:45;6.00;99.90
18880;DHT22;9572;52.378;13.404;2023-04-03T11:14:21;5.90;99.90
18880;DHT22;9572;52.378;13.404;2023-04-03T11:16:59;5.70;99.90
18880;DHT22;9572;52.378;13.404;2023-04-03T11:19:34;5.90;99.90
18880;DHT22;9572;52.378;13.404;2023-04-03T11:22:06;6.20;99.90
18880;DHT22;9572;52.378;13.404;2023-04-03T11:24:37;6.40;99.90
18880;DHT22;9572;52.378;13.404;2023-04-03T11:27:09;6.20;99.90
18880;DHT22;9572;52.378;13.404;2023-04-03T11:29:40;5.90;99.90
18880;DHT22;9572;52.378;13.404;2023-04-03T11:32:25;5.90;99.90
18880;DHT22;9572;52.378;13.404;2023-04-03T11:34:56;5.80;99.90
18880;DHT22;9572;52.378;13.404;2023-04-03T11:37:31;5.80;99.90
18880;DHT22;9572;52.378;13.404;2023-04-03T11:40:03;5.80;99.90
18880;DHT22;9572;52.378;13.404;2023-04-03T11:42:34;5.80;99.90
18880;DHT22;9572;52.378;13.404;2023-04-03T11:45:24;5.80;99.90
18880;DHT22;9572;52.378;13.404;2023-04-03T11:47:53;5.80;99.90
18880;DHT22;9572;52.378;13.404;2023-04-03T11:50:47;5.90;99.90
18880;DHT22;9572;52.378;13.404;2023-04-03T11:53:30;6.00;99.90
18880;DHT22;9572;52.378;13.404;2023-04-03T11:56:00;6.00;99.90
18880;DHT22;9572;52.378;13.404;2023-04-03T11:58:30;6.00;99.90
18880;DHT22;9572;52.378;13.404;2023-04-03T12:01:00;6.00;99.90
18880;DHT22;9572;52.378;13.404;2023-04-03T12:07:01;6.20;99.90
18880;DHT22;9572;52.378;13.404;2023-04-03T12:12:34;6.30;99.90
18880;DHT22;9572;52.378;13.404;2023-04-03T12:21:18;6.60;99.90
18880;DHT22;9572;52.378;13.404;2023-04-03T12:24:03;6.50;99.90
18880;DHT22;9572;52.378;13.404;2023-04-03T12:26:34;6.50;99.90
18880;DHT22;9572;52.378;13.404;2023-04-03T12:29:13;6.40;99.90
18880;DHT22;9572;52.378;13.404;2023-04-03T12:31:48;6.30;99.90
18880;DHT22;9572;52.378;13.404;2023-04-03T12:34:33;6.20;99.90
18880;DHT22;9572;52.378;13.404;2023-04-03T12:37:07;6.20;99.90
18880;DHT22;9572;52.378;13.404;2023-04-03T12:39:51;6.10;99.90
18880;DHT22;9572;52.378;13.404;2023-04-03T12:42:43;6.20;99.90
18880;DHT22;9572;52.378;13.404;2023-04-03T12:45:19;6.10;99.90
18880;DHT22;9572;52.378;13.404;2023-04-03T12:47:49;6.00;99.90
18880;DHT22;9572;52.378;13.404;2023-04-03T12:50:20;5.80;99.90
18880;DHT22;9572;52.378;13.404;2023-04-03T12:52:54;5.70;99.90
18880;DHT22;9572;52.378;13.404;2023-04-03T12:55:21;5.90;99.90
18880;DHT22;9572;52.378;13.404;2023-04-03T12:57:49;5.90;99.90
18880;DHT22;9572;52.378;13.404;2023-04-03T13:00:31;5.90;99.90
18880;DHT22;9572;52.378;13.404;2023-04-03T13:02:59;6.00;99.90
18880;DHT22;9572;52.378;13.404;2023-04-03T13:05:28;6.20;99.90
18880;DHT22;9572;52.378;13.404;2023-04-03T13:10:32;6.60;99.90
18880;DHT22;9572;52.378;13.404;2023-04-03T13:13:10;6.40;99.90
18880;DHT22;9572;52.378;13.404;2023-04-03T13:15:43;5.90;99.90
18880;DHT22;9572;52.378;13.404;2023-04-03T13:18:26;5.90;99.90
18880;DHT22;9572;52.378;13.404;2023-04-03T13:20:56;5.90;99.90
18880;DHT22;9572;52.378;13.404;2023-04-03T13:23:24;5.90;99.90
18880;DHT22;9572;52.378;13.404;2023-04-03T13:25:51;5.90;99.90
18880;DHT22;9572;52.378;13.404;2023-04-03T13:28:21;6.10;99.90
18880;DHT22;9572;52.378;13.404;2023-04-03T13:31:03;5.90;99.90
18880;DHT22;9572;52.378;13.404;2023-04-03T13:33:34;6.10;99.90
18880;DHT22;9572;52.378;13.404;2023-04-03T13:36:05;6.20;99.90
18880;DHT22;9572;52.378;13.404;2023-04-03T13:38:33;6.40;99.90
18880;DHT22;9572;52.378;13.404;2023-04-03T13:41:04;6.30;99.90
18880;DHT22;9572;52.378;13.404;2023-04-03T13:43:35;6.10;99.90
18880;DHT22;9572;52.378;13.404;2023-04-03T13:46:22;6.20;99.90
18880;DHT22;9572;52.378;13.404;2023-04-03T13:48:51;6.30;99.90
18880;DHT22;9572;52.378;13.404;2023-04-03T13:51:21;6.50;99.90
18880;DHT22;9572;52.378;13.404;2023-04-03T13:53:51;6.40;99.90
18880;DHT22;9572;52.378;13.404;2023-04-03T13:56:30;6.20;99.90
18880;DHT22;9572;52.378;13.404;2023-04-03T13:59:05;6.10;99.90
18880;DHT22;9572;52.378;13.404;2023-04-03T14:01:40;5.90;99.90
18880;DHT22;9572;52.378;13.404;2023-04-03T14:04:17;5.70;99.90
18880;DHT22;9572;52.378;13.404;2023-04-03T14:06:44;5.50;99.90
18880;DHT22;9572;52.378;13.404;2023-04-03T14:09:11;5.40;99.90
18880;DHT22;9572;52.378;13.404;2023-04-03T14:11:39;5.30;99.90
18880;DHT22;9572;52.378;13.404;2023-04-03T14:14:12;5.30;99.90
18880;DHT22;9572;52.378;13.404;2023-04-03T14:16:44;5.30;99.90
18880;DHT22;9572;52.378;13.404;2023-04-03T14:19:19;5.40;99.90
18880;DHT22;9572;52.378;13.404;2023-04-03T14:21:47;5.40;99.90
18880;DHT22;9572;52.378;13.404;2023-04-03T14:24:13;5.50;99.90
18880;DHT22;9572;52.378;13.404;2023-04-03T14:26:42;5.40;99.90
18880;DHT22;9572;52.378;13.404;2023-04-03T14:29:10;5.50;99.90
18880;DHT22;9572;52.378;13.404;2023-04-03T14:31:37;5.70;99.90
18880;DHT22;9572;52.378;13.404;2023-04-03T14:34:06;5.70;99.90
18880;DHT22;9572;52.378;13.404;2023-04-03T14:36:33;5.80;99.90
18880;DHT22;9572;52.378;13.404;2023-04-03T14:39:00;5.90;99.90
18880;DHT22;9572;52.378;13.404;2023-04-03T14:41:28;5.90;99.90
18880;DHT22;9572;52.378;13.404;2023-04-03T14:43:55;5.90;99.90
18880;DHT22;9572;52.378;13.404;2023-04-03T14:46:25;6.00;99.90
18880;DHT22;9572;52.378;13.404;2023-04-03T14:48:53;6.10;99.90
18880;DHT22;9572;52.378;13.404;2023-04-03T14:51:22;6.10;99.90
18880;DHT22;9572;52.378;13.404;2023-04-03T14:53:48;6.00;99.90
18880;DHT22;9572;52.378;13.404;2023-04-03T14:56:19;6.00;99.90
18880;DHT22;9572;52.378;13.404;2023-04-03T14:58:47;6.00;99.90
18880;DHT22;9572;52.378;13.404;2023-04-03T15:01:16;5.90;99.90
18880;DHT22;9572;52.378;13.404;2023-04-03T15:03:44;5.90;99.90
18880;DHT22;9572;52.378;13.404;2023-04-03T15:06:12;6.10;99.90
18880;DHT22;9572;52.378;13.404;2023-04-03T15:08:41;6.00;99.90
18880;DHT22;9572;52.378;13.404;2023-04-03T15:11:10;5.90;99.90
18880;DHT22;9572;52.378;13.404;2023-04-03T15:13:37;5.80;99.90
18880;DHT22;9572;52.378;13.404;2023-04-03T15:16:05;5.80;99.90
18880;DHT22;9572;52.378;13.404;2023-04-03T15:18:36;5.70;99.90
18880;DHT22;9572;52.378;13.404;2023-04-03T15:21:04;5.50;99.90
18880;DHT22;9572;52.378;13.404;2023-04-03T15:23:31;5.40;99.90
18880;DHT22;9572;52.378;13.404;2023-04-03T15:25:59;5.50;99.90
18880;DHT22;9572;52.378;13.404;2023-04-03T15:28:30;5.40;99.90
18880;DHT22;9572;52.378;13.404;2023-04-03T15:30:57;5.40;99.90
18880;DHT22;9572;52.378;13.404;2023-04-03T15:33:24;5.30;99.90
18880;DHT22;9572;52.378;13.404;2023-04-03T15:35:51;5.30;99.90
18880;DHT22;9572;52.378;13.404;2023-04-03T15:38:18;5.20;99.90
18880;DHT22;9572;52.378;13.404;2023-04-03T15:40:46;5.10;99.90
18880;DHT22;9572;52.378;13.404;2023-04-03T15:43:15;5.00;99.90
18880;DHT22;9572;52.378;13.404;2023-04-03T15:45:43;5.00;99.90
18880;DHT22;9572;52.378;13.404;2023-04-03T15:48:11;5.00;99.90
18880;DHT22;9572;52.378;13.404;2023-04-03T15:50:39;4.90;99.90
18880;DHT22;9572;52.378;13.404;2023-04-03T15:53:06;4.80;99.90
18880;DHT22;9572;52.378;13.404;2023-04-03T15:55:34;4.90;99.90
18880;DHT22;9572;52.378;13.404;2023-04-03T15:58:02;5.00;99.90
18880;DHT22;9572;52.378;13.404;2023-04-03T16:00:32;5.00;99.90
18880;DHT22;9572;52.378;13.404;2023-04-03T16:03:00;5.00;99.90
18880;DHT22;9572;52.378;13.404;2023-04-03T16:05:29;4.90;99.90
18880;DHT22;9572;52.378;13.404;2023-04-03T16:07:58;4.90;99.90
18880;DHT22;9572;52.378;13.404;2023-04-03T16:10:25;4.90;99.90
18880;DHT22;9572;52.378;13.404;2023-04-03T16:12:52;4.80;99.90
18880;DHT22;9572;52.378;13.404;2023-04-03T16:15:19;4.70;99.90
18880;DHT22;9572;52.378;13.404;2023-04-03T16:17:48;4.70;99.90
18880;DHT22;9572;52.378;13.404;2023-04-03T16:20:15;4.70;99.90
18880;DHT22;9572;52.378;13.404;2023-04-03T16:22:43;4.70;99.90
18880;DHT22;9572;52.378;13.404;2023-04-03T16:25:10;4.60;99.90
18880;DHT22;9572;52.378;13.404;2023-04-03T16:27:37;4.70;99.90
18880;DHT22;9572;52.378;13.404;2023-04-03T16:30:05;4.70;99.90
18880;DHT22;9572;52.378;13.404;2023-04-03T16:32:33;4.50;99.90
18880;DHT22;9572;52.378;13.404;2023-04-03T16:35:01;4.40;99.90
18880;DHT22;9572;52.378;13.404;2023-04-03T16:37:28;4.40;99.90
18880;DHT22;9572;52.378;13.404;2023-04-03T16:39:55;4.50;99.90
18880;DHT22;9572;52.378;13.404;2023-04-03T16:42:23;4.70;99.90
18880;DHT22;9572;52.378;13.404;2023-04-03T16:44:50;4.70;99.90
18880;DHT22;9572;52.378;13.404;2023-04-03T16:47:17;4.80;99.90
18880;DHT22;9572;52.378;13.404;2023-04-03T16:49:46;4.80;99.90
18880;DHT22;9572;52.378;13.404;2023-04-03T16:52:14;4.80;99.90
18880;DHT22;9572;52.378;13.404;2023-04-03T16:54:41;4.70;99.90
18880;DHT22;9572;52.378;13.404;2023-04-03T16:57:08;4.80;99.90
18880;DHT22;9572;52.378;13.404;2023-04-03T16:59:35;4.80;99.90
18880;DHT22;9572;52.378;13.404;2023-04-03T17:02:02;4.90;99.90
18880;DHT22;9572;52.378;13.404;2023-04-03T17:04:29;4.90;99.90
18880;DHT22;9572;52.378;13.404;2023-04-03T17:06:56;4.90;99.90
18880;DHT22;9572;52.378;13.404;2023-04-03T17:09:25;4.80;99.90
18880;DHT22;9572;52.378;13.404;2023-04-03T17:11:52;4.60;99.90
18880;DHT22;9572;52.378;13.404;2023-04-03T17:14:19;4.70;99.90
18880;DHT22;9572;52.378;13.404;2023-04-03T17:16:46;4.70;99.90
18880;DHT22;9572;52.378;13.404;2023-04-03T17:19:13;4.60;99.90
18880;DHT22;9572;52.378;13.404;2023-04-03T17:21:42;4.50;99.90
18880;DHT22;9572;52.378;13.404;2023-04-03T17:24:10;4.60;99.90
18880;DHT22;9572;52.378;13.404;2023-04-03T17:26:40;4.70;99.90
18880;DHT22;9572;52.378;13.404;2023-04-03T17:29:07;4.60;99.90
18880;DHT22;9572;52.378;13.404;2023-04-03T17:31:34;4.40;99.90
18880;DHT22;9572;52.378;13.404;2023-04-03T17:34:01;4.40;99.90
18880;DHT22;9572;52.378;13.404;2023-04-03T17:36:29;4.40;99.90
18880;DHT22;9572;52.378;13.404;2023-04-03T17:38:56;4.40;99.90
18880;DHT22;9572;52.378;13.404;2023-04-03T17:41:23;4.40;99.90
18880;DHT22;9572;52.378;13.404;2023-04-03T17:43:52;4.40;99.90
18880;DHT22;9572;52.378;13.404;2023-04-03T17:46:21;4.40;99.90
18880;DHT22;9572;52.378;13.404;2023-04-03T17:48:48;4.20;99.90
18880;DHT22;9572;52.378;13.404;2023-04-03T17:51:17;4.30;99.90
18880;DHT22;9572;52.378;13.404;2023-04-03T17:53:45;4.20;99.90
18880;DHT22;9572;52.378;13.404;2023-04-03T17:56:14;4.20;99.90
18880;DHT22;9572;52.378;13.404;2023-04-03T17:58:41;4.20;99.90
18880;DHT22;9572;52.378;13.404;2023-04-03T18:01:11;4.20;99.90
18880;DHT22;9572;52.378;13.404;2023-04-03T18:03:39;4.20;99.90
18880;DHT22;9572;52.378;13.404;2023-04-03T18:06:08;4.20;99.90
18880;DHT22;9572;52.378;13.404;2023-04-03T18:08:38;4.10;99.90
18880;DHT22;9572;52.378;13.404;2023-04-03T18:11:05;4.10;99.90
18880;DHT22;9572;52.378;13.404;2023-04-03T18:13:33;4.20;99.90
18880;DHT22;9572;52.378;13.404;2023-04-03T18:16:02;4.20;99.90
18880;DHT22;9572;52.378;13.404;2023-04-03T18:18:30;4.20;99.90
18880;DHT22;9572;52.378;13.404;2023-04-03T18:20:57;4.10;99.90
18880;DHT22;9572;52.378;13.404;2023-04-03T18:23:25;4.10;99.90
18880;DHT22;9572;52.378;13.404;2023-04-03T18:25:52;4.10;99.90
18880;DHT22;9572;52.378;13.404;2023-04-03T18:28:19;3.90;99.90
18880;DHT22;9572;52.378;13.404;2023-04-03T18:30:47;3.90;99.90
18880;DHT22;9572;52.378;13.404;2023-04-03T18:33:14;3.90;99.90
18880;DHT22;9572;52.378;13.404;2023-04-03T18:35:42;3.90;99.90
18880;DHT22;9572;52.378;13.404;2023-04-03T18:38:09;3.80;99.90
18880;DHT22;9572;52.378;13.404;2023-04-03T18:40:36;3.80;99.90
18880;DHT22;9572;52.378;13.404;2023-04-03T18:43:04;3.80;99.90
18880;DHT22;9572;52.378;13.404;2023-04-03T18:45:31;3.80;99.90
18880;DHT22;9572;52.378;13.404;2023-04-03T18:47:58;3.80;99.90
18880;DHT22;9572;52.378;13.404;2023-04-03T18:50:25;3.80;99.90
18880;DHT22;9572;52.378;13.404;2023-04-03T18:52:54;3.80;99.90
18880;DHT22;9572;52.378;13.404;2023-04-03T18:55:20;3.80;99.90
18880;DHT22;9572;52.378;13.404;2023-04-03T18:57:48;3.80;99.90
18880;DHT22;9572;52.378;13.404;2023-04-03T19:00:17;3.80;99.90
18880;DHT22;9572;52.378;13.404;2023-04-03T19:02:44;3.70;99.90
18880;DHT22;9572;52.378;13.404;2023-04-03T19:05:13;3.50;99.90
18880;DHT22;9572;52.378;13.404;2023-04-03T19:07:42;3.50;99.90
18880;DHT22;9572;52.378;13.404;2023-04-03T19:10:11;3.50;99.90
18880;DHT22;9572;52.378;13.404;2023-04-03T19:12:42;3.40;99.90
18880;DHT22;9572;52.378;13.404;2023-04-03T19:15:10;3.30;99.90
18880;DHT22;9572;52.378;13.404;2023-04-03T19:17:37;3.30;99.90
18880;DHT22;9572;52.378;13.404;2023-04-03T19:20:05;3.20;99.90
18880;DHT22;9572;52.378;13.404;2023-04-03T19:22:33;3.20;99.90
18880;DHT22;9572;52.378;13.404;2023-04-03T19:25:00;3.20;99.90
18880;DHT22;9572;52.378;13.404;2023-04-03T19:27:28;3.10;99.90
18880;DHT22;9572;52.378;13.404;2023-04-03T19:29:55;3.20;99.90
18880;DHT22;9572;52.378;13.404;2023-04-03T19:32:22;3.10;99.90
18880;DHT22;9572;52.378;13.404;2023-04-03T19:34:49;3.10;99.90
18880;DHT22;9572;52.378;13.404;2023-04-03T19:37:16;3.00;99.90
18880;DHT22;9572;52.378;13.404;2023-04-03T19:39:44;3.00;99.90
18880;DHT22;9572;52.378;13.404;2023-04-03T19:42:11;3.00;99.90
18880;DHT22;9572;52.378;13.404;2023-04-03T19:44:40;2.90;99.90